sensor_id;sensor_type;location;lat;lon;timestamp;P1;durP1;ratioP1;P2;durP2;ratioP2
52674;SDS011;38569;52.722;6.440;2023-04-25T00:02:21;27.63;;;7.05;;
52674;SDS011;38569;52.722;6.440;2023-04-25T00:04:47;23.85;;;5.88;;
52674;SDS011;38569;52.722;6.440;2023-04-25T00:07:14;33.35;;;6.50;;
52674;SDS011;38569;52.722;6.440;2023-04-25T00:09:41;27.60;;;6.90;;
52674;SDS011;38569;52.722;6.440;2023-04-25T00:12:07;20.35;;;5.75;;
52674;SDS011;38569;52.722;6.440;2023-04-25T00:14:32;21.77;;;5.90;;
52674;SDS011;38569;52.722;6.440;2023-04-25T00:16:59;32.80;;;6.82;;
52674;SDS011;38569;52.722;6.440;2023-04-25T00:19:26;20.55;;;5.43;;
52674;SDS011;38569;52.722;6.440;2023-04-25T00:21:54;26.50;;;6.47;;
52674;SDS011;38569;52.722;6.440;2023-04-25T00:24:22;22.55;;;5.43;;
52674;SDS011;38569;52.722;6.440;2023-04-25T00:26:48;23.60;;;7.72;;
52674;SDS011;38569;52.722;6.440;2023-04-25T00:29:14;29.55;;;6.60;;
52674;SDS011;38569;52.722;6.440;2023-04-25T00:31:42;33.22;;;6.60;;
52674;SDS011;38569;52.722;6.440;2023-04-25T00:34:08;24.50;;;5.90;;
52674;SDS011;38569;52.722;6.440;2023-04-25T00:36:33;24.00;;;5.80;;
52674;SDS011;38569;52.722;6.440;2023-04-25T00:38:59;30.63;;;6.53;;
52674;SDS011;38569;52.722;6.440;2023-04-25T00:41:25;22.50;;;6.63;;
52674;SDS011;38569;52.722;6.440;2023-04-25T00:43:52;36.97;;;6.70;;
52674;SDS011;38569;52.722;6.440;2023-04-25T00:46:19;27.05;;;6.43;;
52674;SDS011;38569;52.722;6.440;2023-04-25T00:48:45;23.80;;;6.03;;
52674;SDS011;38569;52.722;6.440;2023-04-25T00:51:13;23.73;;;5.60;;
52674;SDS011;38569;52.722;6.440;2023-04-25T00:53:41;25.52;;;6.53;;
52674;SDS011;38569;52.722;6.440;2023-04-25T00:56:07;28.45;;;5.88;;
52674;SDS011;38569;52.722;6.440;2023-04-25T00:58:33;39.28;;;6.88;;
52674;SDS011;38569;52.722;6.440;2023-04-25T01:00:59;28.38;;;6.05;;
52674;SDS011;38569;52.722;6.440;2023-04-25T01:03:26;26.85;;;6.05;;
52674;SDS011;38569;52.722;6.440;2023-04-25T01:05:53;20.90;;;6.93;;
52674;SDS011;38569;52.722;6.440;2023-04-25T01:08:20;22.90;;;6.57;;
52674;SDS011;38569;52.722;6.440;2023-04-25T01:10:50;27.48;;;7.75;;
52674;SDS011;38569;52.722;6.440;2023-04-25T01:13:16;26.25;;;6.10;;
52674;SDS011;38569;52.722;6.440;2023-04-25T01:15:45;22.75;;;6.28;;
52674;SDS011;38569;52.722;6.440;2023-04-25T01:18:10;24.33;;;5.90;;
52674;SDS011;38569;52.722;6.440;2023-04-25T01:20:37;25.98;;;5.63;;
52674;SDS011;38569;52.722;6.440;2023-04-25T01:23:05;27.85;;;5.68;;
52674;SDS011;38569;52.722;6.440;2023-04-25T01:25:31;28.10;;;7.78;;
52674;SDS011;38569;52.722;6.440;2023-04-25T01:27:57;27.75;;;7.50;;
52674;SDS011;38569;52.722;6.440;2023-04-25T01:30:24;27.38;;;5.47;;
52674;SDS011;38569;52.722;6.440;2023-04-25T01:32:52;23.50;;;9.32;;
52674;SDS011;38569;52.722;6.440;2023-04-25T01:35:20;26.20;;;6.18;;
52674;SDS011;38569;52.722;6.440;2023-04-25T01:37:47;23.63;;;7.93;;
52674;SDS011;38569;52.722;6.440;2023-04-25T01:40:12;23.50;;;5.78;;
52674;SDS011;38569;52.722;6.440;2023-04-25T01:42:40;29.38;;;6.43;;
52674;SDS011;38569;52.722;6.440;2023-04-25T01:45:07;20.67;;;6.05;;
52674;SDS011;38569;52.722;6.440;2023-04-25T01:47:34;18.60;;;5.68;;
52674;SDS011;38569;52.722;6.440;2023-04-25T01:50:01;24.88;;;6.15;;
52674;SDS011;38569;52.722;6.440;2023-04-25T01:52:27;26.30;;;6.78;;
52674;SDS011;38569;52.722;6.440;2023-04-25T01:54:53;23.50;;;6.03;;
52674;SDS011;38569;52.722;6.440;2023-04-25T01:57:21;23.23;;;5.68;;
52674;SDS011;38569;52.722;6.440;2023-04-25T01:59:47;18.98;;;5.60;;
52674;SDS011;38569;52.722;6.440;2023-04-25T02:02:14;24.70;;;5.45;;
52674;SDS011;38569;52.722;6.440;2023-04-25T02:04:39;20.85;;;5.85;;
52674;SDS011;38569;52.722;6.440;2023-04-25T02:07:05;20.98;;;5.47;;
52674;SDS011;38569;52.722;6.440;2023-04-25T02:09:31;17.67;;;5.03;;
52674;SDS011;38569;52.722;6.440;2023-04-25T02:11:57;20.92;;;5.40;;
52674;SDS011;38569;52.722;6.440;2023-04-25T02:14:23;15.48;;;4.75;;
52674;SDS011;38569;52.722;6.440;2023-04-25T02:16:49;20.08;;;4.50;;
52674;SDS011;38569;52.722;6.440;2023-04-25T02:19:16;26.92;;;5.13;;
52674;SDS011;38569;52.722;6.440;2023-04-25T02:21:42;23.00;;;5.68;;
52674;SDS011;38569;52.722;6.440;2023-04-25T02:24:07;18.52;;;5.20;;
52674;SDS011;38569;52.722;6.440;2023-04-25T02:26:33;23.08;;;5.10;;
52674;SDS011;38569;52.722;6.440;2023-04-25T02:28:59;17.67;;;5.13;;
52674;SDS011;38569;52.722;6.440;2023-04-25T02:31:26;17.42;;;4.70;;
52674;SDS011;38569;52.722;6.440;2023-04-25T02:33:51;24.25;;;4.68;;
52674;SDS011;38569;52.722;6.440;2023-04-25T02:36:17;23.17;;;4.75;;
52674;SDS011;38569;52.722;6.440;2023-04-25T02:38:43;15.55;;;4.32;;
52674;SDS011;38569;52.722;6.440;2023-04-25T02:41:09;29.55;;;5.45;;
52674;SDS011;38569;52.722;6.440;2023-04-25T02:43:34;21.60;;;4.63;;
52674;SDS011;38569;52.722;6.440;2023-04-25T02:46:00;14.63;;;4.30;;
52674;SDS011;38569;52.722;6.440;2023-04-25T02:48:26;14.70;;;3.90;;
52674;SDS011;38569;52.722;6.440;2023-04-25T02:50:52;20.90;;;4.13;;
52674;SDS011;38569;52.722;6.440;2023-04-25T02:53:17;21.92;;;5.05;;
52674;SDS011;38569;52.722;6.440;2023-04-25T02:55:43;18.85;;;3.95;;
52674;SDS011;38569;52.722;6.440;2023-04-25T02:58:09;13.77;;;3.97;;
52674;SDS011;38569;52.722;6.440;2023-04-25T03:00:35;12.93;;;3.30;;
52674;SDS011;38569;52.722;6.440;2023-04-25T03:03:01;15.07;;;3.03;;
52674;SDS011;38569;52.722;6.440;2023-04-25T03:05:26;19.33;;;4.50;;
52674;SDS011;38569;52.722;6.440;2023-04-25T03:07:52;21.42;;;3.63;;
52674;SDS011;38569;52.722;6.440;2023-04-25T03:10:18;14.57;;;4.15;;
52674;SDS011;38569;52.722;6.440;2023-04-25T03:12:43;12.95;;;3.67;;
52674;SDS011;38569;52.722;6.440;2023-04-25T03:15:09;21.85;;;5.07;;
52674;SDS011;38569;52.722;6.440;2023-04-25T03:17:35;17.65;;;3.97;;
52674;SDS011;38569;52.722;6.440;2023-04-25T03:20:03;19.60;;;3.95;;
52674;SDS011;38569;52.722;6.440;2023-04-25T03:22:30;16.88;;;3.53;;
52674;SDS011;38569;52.722;6.440;2023-04-25T03:24:56;18.08;;;3.65;;
52674;SDS011;38569;52.722;6.440;2023-04-25T03:27:22;18.77;;;3.78;;
52674;SDS011;38569;52.722;6.440;2023-04-25T03:29:47;17.17;;;3.72;;
52674;SDS011;38569;52.722;6.440;2023-04-25T03:32:19;15.02;;;4.03;;
52674;SDS011;38569;52.722;6.440;2023-04-25T03:34:44;13.82;;;4.05;;
52674;SDS011;38569;52.722;6.440;2023-04-25T03:37:10;14.38;;;3.67;;
52674;SDS011;38569;52.722;6.440;2023-04-25T03:39:36;17.42;;;3.88;;
52674;SDS011;38569;52.722;6.440;2023-04-25T03:42:02;43.20;;;7.25;;
52674;SDS011;38569;52.722;6.440;2023-04-25T03:44:28;15.43;;;3.35;;
52674;SDS011;38569;52.722;6.440;2023-04-25T03:46:54;17.63;;;4.20;;
52674;SDS011;38569;52.722;6.440;2023-04-25T03:49:20;14.48;;;3.67;;
52674;SDS011;38569;52.722;6.440;2023-04-25T03:51:46;12.90;;;4.07;;
52674;SDS011;38569;52.722;6.440;2023-04-25T03:54:14;16.05;;;3.05;;
52674;SDS011;38569;52.722;6.440;2023-04-25T03:56:40;19.67;;;3.78;;
52674;SDS011;38569;52.722;6.440;2023-04-25T03:59:09;11.32;;;3.08;;
52674;SDS011;38569;52.722;6.440;2023-04-25T04:01:34;13.35;;;3.45;;
52674;SDS011;38569;52.722;6.440;2023-04-25T04:04:00;12.70;;;3.67;;
52674;SDS011;38569;52.722;6.440;2023-04-25T04:06:26;17.15;;;3.40;;
52674;SDS011;38569;52.722;6.440;2023-04-25T04:08:52;12.07;;;3.05;;
52674;SDS011;38569;52.722;6.440;2023-04-25T04:11:18;15.30;;;3.28;;
52674;SDS011;38569;52.722;6.440;2023-04-25T04:13:43;9.82;;;2.95;;
52674;SDS011;38569;52.722;6.440;2023-04-25T04:16:09;10.68;;;3.00;;
52674;SDS011;38569;52.722;6.440;2023-04-25T04:18:35;11.50;;;2.75;;
52674;SDS011;38569;52.722;6.440;2023-04-25T04:21:01;12.23;;;2.95;;
52674;SDS011;38569;52.722;6.440;2023-04-25T04:23:27;12.80;;;3.10;;
52674;SDS011;38569;52.722;6.440;2023-04-25T04:25:53;15.55;;;3.22;;
52674;SDS011;38569;52.722;6.440;2023-04-25T04:28:20;12.27;;;4.10;;
52674;SDS011;38569;52.722;6.440;2023-04-25T04:30:47;14.82;;;2.70;;
52674;SDS011;38569;52.722;6.440;2023-04-25T04:33:16;12.25;;;3.10;;
52674;SDS011;38569;52.722;6.440;2023-04-25T04:35:46;17.17;;;3.97;;
52674;SDS011;38569;52.722;6.440;2023-04-25T04:38:13;16.50;;;3.47;;
52674;SDS011;38569;52.722;6.440;2023-04-25T04:40:40;9.13;;;2.67;;
52674;SDS011;38569;52.722;6.440;2023-04-25T04:43:08;19.55;;;3.80;;
52674;SDS011;38569;52.722;6.440;2023-04-25T04:45:36;11.48;;;2.40;;
52674;SDS011;38569;52.722;6.440;2023-04-25T04:48:05;9.00;;;2.67;;
52674;SDS011;38569;52.722;6.440;2023-04-25T04:50:31;10.30;;;2.30;;
52674;SDS011;38569;52.722;6.440;2023-04-25T04:53:01;10.63;;;2.78;;
52674;SDS011;38569;52.722;6.440;2023-04-25T04:55:27;17.58;;;3.00;;
52674;SDS011;38569;52.722;6.440;2023-04-25T04:57:53;8.43;;;2.53;;
52674;SDS011;38569;52.722;6.440;2023-04-25T05:00:18;17.83;;;4.22;;
52674;SDS011;38569;52.722;6.440;2023-04-25T05:02:45;10.73;;;3.35;;
52674;SDS011;38569;52.722;6.440;2023-04-25T05:05:11;17.15;;;4.03;;
52674;SDS011;38569;52.722;6.440;2023-04-25T05:07:37;17.30;;;2.88;;
52674;SDS011;38569;52.722;6.440;2023-04-25T05:10:03;9.35;;;2.75;;
52674;SDS011;38569;52.722;6.440;2023-04-25T05:12:29;14.27;;;2.90;;
52674;SDS011;38569;52.722;6.440;2023-04-25T05:14:55;13.90;;;3.08;;
52674;SDS011;38569;52.722;6.440;2023-04-25T05:17:21;17.67;;;3.35;;
52674;SDS011;38569;52.722;6.440;2023-04-25T05:19:47;11.93;;;3.03;;
52674;SDS011;38569;52.722;6.440;2023-04-25T05:22:15;10.70;;;3.60;;
52674;SDS011;38569;52.722;6.440;2023-04-25T05:24:41;14.75;;;3.22;;
52674;SDS011;38569;52.722;6.440;2023-04-25T05:27:07;14.32;;;3.22;;
52674;SDS011;38569;52.722;6.440;2023-04-25T05:29:32;13.98;;;3.20;;
52674;SDS011;38569;52.722;6.440;2023-04-25T05:31:58;9.45;;;3.20;;
52674;SDS011;38569;52.722;6.440;2023-04-25T05:34:24;14.38;;;3.15;;
52674;SDS011;38569;52.722;6.440;2023-04-25T05:36:50;10.98;;;2.72;;
52674;SDS011;38569;52.722;6.440;2023-04-25T05:39:16;12.10;;;2.90;;
52674;SDS011;38569;52.722;6.440;2023-04-25T05:41:42;11.50;;;4.25;;
52674;SDS011;38569;52.722;6.440;2023-04-25T05:44:08;11.40;;;3.40;;
52674;SDS011;38569;52.722;6.440;2023-04-25T05:46:34;10.38;;;2.50;;
52674;SDS011;38569;52.722;6.440;2023-04-25T05:49:00;9.13;;;2.42;;
52674;SDS011;38569;52.722;6.440;2023-04-25T05:51:26;11.05;;;2.78;;
52674;SDS011;38569;52.722;6.440;2023-04-25T05:53:52;12.48;;;3.25;;
52674;SDS011;38569;52.722;6.440;2023-04-25T05:56:18;11.63;;;2.88;;
52674;SDS011;38569;52.722;6.440;2023-04-25T05:58:44;10.05;;;3.03;;
52674;SDS011;38569;52.722;6.440;2023-04-25T06:01:10;11.68;;;2.20;;
52674;SDS011;38569;52.722;6.440;2023-04-25T06:03:35;13.07;;;2.80;;
52674;SDS011;38569;52.722;6.440;2023-04-25T06:06:02;15.68;;;3.38;;
52674;SDS011;38569;52.722;6.440;2023-04-25T06:08:29;10.30;;;2.90;;
52674;SDS011;38569;52.722;6.440;2023-04-25T06:10:54;13.35;;;3.95;;
52674;SDS011;38569;52.722;6.440;2023-04-25T06:13:20;11.18;;;2.47;;
52674;SDS011;38569;52.722;6.440;2023-04-25T06:15:46;12.85;;;3.80;;
52674;SDS011;38569;52.722;6.440;2023-04-25T06:18:11;10.35;;;2.33;;
52674;SDS011;38569;52.722;6.440;2023-04-25T06:20:37;13.40;;;2.60;;
52674;SDS011;38569;52.722;6.440;2023-04-25T06:23:03;8.70;;;2.70;;
52674;SDS011;38569;52.722;6.440;2023-04-25T06:25:29;8.02;;;2.40;;
52674;SDS011;38569;52.722;6.440;2023-04-25T06:27:54;7.70;;;1.90;;
52674;SDS011;38569;52.722;6.440;2023-04-25T06:30:20;10.65;;;2.40;;
52674;SDS011;38569;52.722;6.440;2023-04-25T06:32:49;15.55;;;2.78;;
52674;SDS011;38569;52.722;6.440;2023-04-25T06:35:15;10.18;;;3.40;;
52674;SDS011;38569;52.722;6.440;2023-04-25T06:37:41;9.55;;;3.50;;
52674;SDS011;38569;52.722;6.440;2023-04-25T06:40:07;12.48;;;2.42;;
52674;SDS011;38569;52.722;6.440;2023-04-25T06:42:33;9.02;;;2.45;;
52674;SDS011;38569;52.722;6.440;2023-04-25T06:44:58;10.50;;;2.25;;
52674;SDS011;38569;52.722;6.440;2023-04-25T06:47:24;8.18;;;1.92;;
52674;SDS011;38569;52.722;6.440;2023-04-25T06:49:50;12.43;;;2.25;;
52674;SDS011;38569;52.722;6.440;2023-04-25T06:52:16;12.88;;;2.25;;
52674;SDS011;38569;52.722;6.440;2023-04-25T06:54:49;9.82;;;2.55;;
52674;SDS011;38569;52.722;6.440;2023-04-25T06:57:15;7.03;;;1.90;;
52674;SDS011;38569;52.722;6.440;2023-04-25T06:59:44;14.00;;;2.33;;
52674;SDS011;38569;52.722;6.440;2023-04-25T07:02:10;9.02;;;1.88;;
52674;SDS011;38569;52.722;6.440;2023-04-25T07:04:35;11.23;;;2.03;;
52674;SDS011;38569;52.722;6.440;2023-04-25T07:07:01;10.63;;;3.08;;
52674;SDS011;38569;52.722;6.440;2023-04-25T07:09:28;6.60;;;2.25;;
52674;SDS011;38569;52.722;6.440;2023-04-25T07:11:54;7.45;;;2.42;;
52674;SDS011;38569;52.722;6.440;2023-04-25T07:14:20;9.20;;;2.10;;
52674;SDS011;38569;52.722;6.440;2023-04-25T07:16:48;11.82;;;2.58;;
52674;SDS011;38569;52.722;6.440;2023-04-25T07:19:14;8.93;;;2.47;;
52674;SDS011;38569;52.722;6.440;2023-04-25T07:21:40;14.50;;;3.25;;
52674;SDS011;38569;52.722;6.440;2023-04-25T07:24:06;5.55;;;2.03;;
52674;SDS011;38569;52.722;6.440;2023-04-25T07:26:32;10.35;;;2.40;;
52674;SDS011;38569;52.722;6.440;2023-04-25T07:28:58;12.52;;;2.50;;
52674;SDS011;38569;52.722;6.440;2023-04-25T07:31:24;11.48;;;1.55;;
52674;SDS011;38569;52.722;6.440;2023-04-25T07:33:50;5.78;;;2.10;;
52674;SDS011;38569;52.722;6.440;2023-04-25T07:36:15;13.20;;;1.85;;
52674;SDS011;38569;52.722;6.440;2023-04-25T07:38:41;8.00;;;2.28;;
52674;SDS011;38569;52.722;6.440;2023-04-25T07:41:07;7.68;;;2.22;;
52674;SDS011;38569;52.722;6.440;2023-04-25T07:43:33;9.48;;;2.00;;
52674;SDS011;38569;52.722;6.440;2023-04-25T07:45:58;8.35;;;2.08;;
52674;SDS011;38569;52.722;6.440;2023-04-25T07:48:24;8.32;;;2.90;;
52674;SDS011;38569;52.722;6.440;2023-04-25T07:50:50;5.13;;;1.48;;
52674;SDS011;38569;52.722;6.440;2023-04-25T07:53:16;7.50;;;1.45;;
52674;SDS011;38569;52.722;6.440;2023-04-25T07:55:43;8.85;;;2.25;;
52674;SDS011;38569;52.722;6.440;2023-04-25T07:58:09;10.20;;;2.00;;
52674;SDS011;38569;52.722;6.440;2023-04-25T08:00:36;8.00;;;2.10;;
52674;SDS011;38569;52.722;6.440;2023-04-25T08:03:03;9.32;;;1.63;;
52674;SDS011;38569;52.722;6.440;2023-04-25T08:05:29;5.43;;;1.48;;
52674;SDS011;38569;52.722;6.440;2023-04-25T08:07:54;4.07;;;1.70;;
52674;SDS011;38569;52.722;6.440;2023-04-25T08:10:22;10.38;;;2.25;;
52674;SDS011;38569;52.722;6.440;2023-04-25T08:12:48;9.82;;;1.98;;
52674;SDS011;38569;52.722;6.440;2023-04-25T08:15:14;6.78;;;2.03;;
52674;SDS011;38569;52.722;6.440;2023-04-25T08:17:40;9.63;;;2.67;;
52674;SDS011;38569;52.722;6.440;2023-04-25T08:20:06;8.27;;;2.28;;
52674;SDS011;38569;52.722;6.440;2023-04-25T08:22:32;6.10;;;1.45;;
52674;SDS011;38569;52.722;6.440;2023-04-25T08:24:59;3.97;;;1.25;;
52674;SDS011;38569;52.722;6.440;2023-04-25T08:27:24;3.90;;;1.40;;
52674;SDS011;38569;52.722;6.440;2023-04-25T08:29:53;9.02;;;1.23;;
52674;SDS011;38569;52.722;6.440;2023-04-25T08:32:19;3.90;;;1.17;;
52674;SDS011;38569;52.722;6.440;2023-04-25T08:34:46;2.85;;;1.25;;
52674;SDS011;38569;52.722;6.440;2023-04-25T08:37:12;4.78;;;1.17;;
52674;SDS011;38569;52.722;6.440;2023-04-25T08:39:38;3.45;;;1.10;;
52674;SDS011;38569;52.722;6.440;2023-04-25T08:42:04;7.18;;;1.48;;
52674;SDS011;38569;52.722;6.440;2023-04-25T08:44:35;4.00;;;1.10;;
52674;SDS011;38569;52.722;6.440;2023-04-25T08:47:04;6.53;;;1.00;;
52674;SDS011;38569;52.722;6.440;2023-04-25T08:49:33;33.90;;;3.17;;
52674;SDS011;38569;52.722;6.440;2023-04-25T08:52:00;60.33;;;5.30;;
52674;SDS011;38569;52.722;6.440;2023-04-25T08:54:29;6.60;;;1.55;;
52674;SDS011;38569;52.722;6.440;2023-04-25T08:56:56;6.03;;;1.30;;
52674;SDS011;38569;52.722;6.440;2023-04-25T08:59:26;9.30;;;2.13;;
52674;SDS011;38569;52.722;6.440;2023-04-25T09:01:53;114.65;;;10.07;;
52674;SDS011;38569;52.722;6.440;2023-04-25T09:04:19;44.58;;;4.00;;
52674;SDS011;38569;52.722;6.440;2023-04-25T09:06:46;242.45;;;24.38;;
52674;SDS011;38569;52.722;6.440;2023-04-25T09:09:12;68.07;;;7.00;;
52674;SDS011;38569;52.722;6.440;2023-04-25T09:11:38;117.00;;;11.15;;
52674;SDS011;38569;52.722;6.440;2023-04-25T09:14:12;99.65;;;9.10;;
52674;SDS011;38569;52.722;6.440;2023-04-25T09:19:31;128.48;;;15.68;;
52674;SDS011;38569;52.722;6.440;2023-04-25T09:22:04;106.63;;;10.65;;
52674;SDS011;38569;52.722;6.440;2023-04-25T09:27:08;8.25;;;2.50;;
52674;SDS011;38569;52.722;6.440;2023-04-25T09:29:36;14.60;;;2.45;;
52674;SDS011;38569;52.722;6.440;2023-04-25T09:32:11;10.18;;;2.20;;
52674;SDS011;38569;52.722;6.440;2023-04-25T09:34:48;8.30;;;1.77;;
52674;SDS011;38569;52.722;6.440;2023-04-25T09:37:27;7.43;;;1.98;;
52674;SDS011;38569;52.722;6.440;2023-04-25T09:39:57;6.38;;;1.52;;
52674;SDS011;38569;52.722;6.440;2023-04-25T09:42:26;7.20;;;1.95;;
52674;SDS011;38569;52.722;6.440;2023-04-25T09:44:57;7.32;;;2.13;;
52674;SDS011;38569;52.722;6.440;2023-04-25T09:47:24;8.55;;;2.40;;
52674;SDS011;38569;52.722;6.440;2023-04-25T09:49:52;3.33;;;1.27;;
52674;SDS011;38569;52.722;6.440;2023-04-25T09:52:19;6.40;;;1.60;;
52674;SDS011;38569;52.722;6.440;2023-04-25T09:54:47;8.45;;;1.30;;
52674;SDS011;38569;52.722;6.440;2023-04-25T09:57:21;7.60;;;1.92;;
52674;SDS011;38569;52.722;6.440;2023-04-25T09:59:48;9.45;;;2.10;;
52674;SDS011;38569;52.722;6.440;2023-04-25T10:02:18;6.05;;;1.65;;
52674;SDS011;38569;52.722;6.440;2023-04-25T10:04:49;7.93;;;2.35;;
52674;SDS011;38569;52.722;6.440;2023-04-25T10:07:18;10.40;;;2.17;;
52674;SDS011;38569;52.722;6.440;2023-04-25T10:09:47;4.70;;;1.42;;
52674;SDS011;38569;52.722;6.440;2023-04-25T10:12:15;7.28;;;1.75;;
52674;SDS011;38569;52.722;6.440;2023-04-25T10:14:42;7.03;;;1.80;;
52674;SDS011;38569;52.722;6.440;2023-04-25T10:17:09;6.95;;;1.95;;
52674;SDS011;38569;52.722;6.440;2023-04-25T10:19:36;9.45;;;1.83;;
52674;SDS011;38569;52.722;6.440;2023-04-25T10:22:04;8.70;;;2.28;;
52674;SDS011;38569;52.722;6.440;2023-04-25T10:24:50;7.97;;;1.50;;
52674;SDS011;38569;52.722;6.440;2023-04-25T10:27:16;9.80;;;1.92;;
52674;SDS011;38569;52.722;6.440;2023-04-25T10:29:43;10.60;;;2.30;;
52674;SDS011;38569;52.722;6.440;2023-04-25T10:32:09;3.92;;;1.17;;
52674;SDS011;38569;52.722;6.440;2023-04-25T10:34:41;2.58;;;0.90;;
52674;SDS011;38569;52.722;6.440;2023-04-25T10:37:12;2.42;;;1.15;;
52674;SDS011;38569;52.722;6.440;2023-04-25T10:39:41;8.25;;;1.20;;
52674;SDS011;38569;52.722;6.440;2023-04-25T10:42:07;5.82;;;1.45;;
52674;SDS011;38569;52.722;6.440;2023-04-25T10:44:33;5.07;;;2.20;;
52674;SDS011;38569;52.722;6.440;2023-04-25T10:47:01;5.80;;;2.22;;
52674;SDS011;38569;52.722;6.440;2023-04-25T10:52:26;6.82;;;1.50;;
52674;SDS011;38569;52.722;6.440;2023-04-25T10:54:54;5.90;;;1.40;;
52674;SDS011;38569;52.722;6.440;2023-04-25T10:57:37;4.82;;;1.67;;
52674;SDS011;38569;52.722;6.440;2023-04-25T11:02:49;8.30;;;1.77;;
52674;SDS011;38569;52.722;6.440;2023-04-25T11:08:00;5.22;;;1.60;;
52674;SDS011;38569;52.722;6.440;2023-04-25T11:10:27;7.55;;;2.20;;
52674;SDS011;38569;52.722;6.440;2023-04-25T11:12:58;4.75;;;1.50;;
52674;SDS011;38569;52.722;6.440;2023-04-25T11:15:25;3.75;;;0.90;;
52674;SDS011;38569;52.722;6.440;2023-04-25T11:17:51;7.90;;;2.03;;
52674;SDS011;38569;52.722;6.440;2023-04-25T11:20:17;8.30;;;2.10;;
52674;SDS011;38569;52.722;6.440;2023-04-25T11:22:44;3.50;;;1.85;;
52674;SDS011;38569;52.722;6.440;2023-04-25T11:25:12;4.28;;;1.30;;
52674;SDS011;38569;52.722;6.440;2023-04-25T11:28:00;5.00;;;2.10;;
52674;SDS011;38569;52.722;6.440;2023-04-25T11:30:26;7.85;;;1.65;;
52674;SDS011;38569;52.722;6.440;2023-04-25T11:32:52;6.32;;;2.55;;
52674;SDS011;38569;52.722;6.440;2023-04-25T11:35:19;5.82;;;1.50;;
52674;SDS011;38569;52.722;6.440;2023-04-25T11:37:47;6.32;;;1.40;;
52674;SDS011;38569;52.722;6.440;2023-04-25T11:40:14;5.68;;;1.50;;
52674;SDS011;38569;52.722;6.440;2023-04-25T11:42:43;4.32;;;1.48;;
52674;SDS011;38569;52.722;6.440;2023-04-25T11:45:11;5.55;;;1.73;;
52674;SDS011;38569;52.722;6.440;2023-04-25T11:47:38;6.25;;;2.17;;
52674;SDS011;38569;52.722;6.440;2023-04-25T11:50:05;5.13;;;1.23;;
52674;SDS011;38569;52.722;6.440;2023-04-25T11:55:03;5.40;;;1.40;;
52674;SDS011;38569;52.722;6.440;2023-04-25T11:57:33;8.80;;;2.05;;
52674;SDS011;38569;52.722;6.440;2023-04-25T12:00:09;4.38;;;1.35;;
52674;SDS011;38569;52.722;6.440;2023-04-25T12:02:40;3.95;;;0.70;;
52674;SDS011;38569;52.722;6.440;2023-04-25T12:05:07;4.28;;;1.20;;
52674;SDS011;38569;52.722;6.440;2023-04-25T12:07:34;8.13;;;1.42;;
52674;SDS011;38569;52.722;6.440;2023-04-25T12:10:08;6.88;;;1.45;;
52674;SDS011;38569;52.722;6.440;2023-04-25T12:12:35;6.63;;;1.52;;
52674;SDS011;38569;52.722;6.440;2023-04-25T12:17:48;6.93;;;1.50;;
52674;SDS011;38569;52.722;6.440;2023-04-25T12:20:20;6.93;;;2.05;;
52674;SDS011;38569;52.722;6.440;2023-04-25T12:22:49;6.82;;;1.55;;
52674;SDS011;38569;52.722;6.440;2023-04-25T12:28:09;8.75;;;1.73;;
52674;SDS011;38569;52.722;6.440;2023-04-25T12:33:31;3.35;;;1.27;;
52674;SDS011;38569;52.722;6.440;2023-04-25T12:35:58;5.57;;;1.48;;
52674;SDS011;38569;52.722;6.440;2023-04-25T12:38:28;8.23;;;1.85;;
52674;SDS011;38569;52.722;6.440;2023-04-25T12:40:59;7.13;;;1.40;;
52674;SDS011;38569;52.722;6.440;2023-04-25T12:43:25;5.68;;;1.85;;
52674;SDS011;38569;52.722;6.440;2023-04-25T12:45:55;7.22;;;1.52;;
52674;SDS011;38569;52.722;6.440;2023-04-25T12:48:20;5.95;;;1.75;;
52674;SDS011;38569;52.722;6.440;2023-04-25T12:50:47;6.40;;;1.65;;
52674;SDS011;38569;52.722;6.440;2023-04-25T12:53:14;2.80;;;1.48;;
52674;SDS011;38569;52.722;6.440;2023-04-25T12:55:41;8.60;;;1.35;;
52674;SDS011;38569;52.722;6.440;2023-04-25T12:58:07;4.35;;;1.33;;
52674;SDS011;38569;52.722;6.440;2023-04-25T13:00:33;4.75;;;1.52;;
52674;SDS011;38569;52.722;6.440;2023-04-25T13:02:58;4.22;;;1.40;;
52674;SDS011;38569;52.722;6.440;2023-04-25T13:05:24;5.70;;;1.73;;
52674;SDS011;38569;52.722;6.440;2023-04-25T13:07:50;12.15;;;1.95;;
52674;SDS011;38569;52.722;6.440;2023-04-25T13:10:16;3.55;;;1.38;;
52674;SDS011;38569;52.722;6.440;2023-04-25T13:12:43;10.43;;;2.08;;
52674;SDS011;38569;52.722;6.440;2023-04-25T13:15:09;11.05;;;1.05;;
52674;SDS011;38569;52.722;6.440;2023-04-25T13:17:36;6.28;;;2.00;;
52674;SDS011;38569;52.722;6.440;2023-04-25T13:20:03;7.50;;;1.55;;
52674;SDS011;38569;52.722;6.440;2023-04-25T13:22:33;8.93;;;1.38;;
52674;SDS011;38569;52.722;6.440;2023-04-25T13:25:03;7.03;;;1.75;;
52674;SDS011;38569;52.722;6.440;2023-04-25T13:27:30;7.05;;;1.60;;
52674;SDS011;38569;52.722;6.440;2023-04-25T13:29:57;6.93;;;1.95;;
52674;SDS011;38569;52.722;6.440;2023-04-25T13:32:23;7.85;;;2.33;;
52674;SDS011;38569;52.722;6.440;2023-04-25T13:34:50;6.47;;;1.77;;
52674;SDS011;38569;52.722;6.440;2023-04-25T13:37:16;5.15;;;1.92;;
52674;SDS011;38569;52.722;6.440;2023-04-25T13:39:42;6.38;;;1.48;;
52674;SDS011;38569;52.722;6.440;2023-04-25T13:42:07;11.50;;;1.60;;
52674;SDS011;38569;52.722;6.440;2023-04-25T13:44:33;8.27;;;1.88;;
52674;SDS011;38569;52.722;6.440;2023-04-25T13:46:59;8.48;;;2.25;;
52674;SDS011;38569;52.722;6.440;2023-04-25T13:49:28;6.40;;;1.67;;
52674;SDS011;38569;52.722;6.440;2023-04-25T13:51:53;9.73;;;1.90;;
52674;SDS011;38569;52.722;6.440;2023-04-25T13:54:20;7.90;;;1.70;;
52674;SDS011;38569;52.722;6.440;2023-04-25T13:56:45;11.25;;;2.97;;
52674;SDS011;38569;52.722;6.440;2023-04-25T13:59:11;5.70;;;1.90;;
52674;SDS011;38569;52.722;6.440;2023-04-25T14:01:37;8.18;;;2.45;;
52674;SDS011;38569;52.722;6.440;2023-04-25T14:04:03;7.72;;;3.10;;
52674;SDS011;38569;52.722;6.440;2023-04-25T14:06:31;7.22;;;1.60;;
52674;SDS011;38569;52.722;6.440;2023-04-25T14:08:57;5.35;;;1.67;;
52674;SDS011;38569;52.722;6.440;2023-04-25T14:11:25;5.72;;;1.65;;
52674;SDS011;38569;52.722;6.440;2023-04-25T14:13:51;5.22;;;1.63;;
52674;SDS011;38569;52.722;6.440;2023-04-25T14:16:16;3.28;;;1.30;;
52674;SDS011;38569;52.722;6.440;2023-04-25T14:18:42;6.97;;;1.60;;
52674;SDS011;38569;52.722;6.440;2023-04-25T14:21:08;7.40;;;1.55;;
52674;SDS011;38569;52.722;6.440;2023-04-25T14:23:35;5.85;;;1.30;;
52674;SDS011;38569;52.722;6.440;2023-04-25T14:26:01;4.35;;;1.45;;
52674;SDS011;38569;52.722;6.440;2023-04-25T14:28:27;5.05;;;1.60;;
52674;SDS011;38569;52.722;6.440;2023-04-25T14:30:52;9.02;;;1.92;;
52674;SDS011;38569;52.722;6.440;2023-04-25T14:33:21;11.20;;;1.98;;
52674;SDS011;38569;52.722;6.440;2023-04-25T14:35:47;13.25;;;1.90;;
52674;SDS011;38569;52.722;6.440;2023-04-25T14:38:15;6.05;;;1.52;;
52674;SDS011;38569;52.722;6.440;2023-04-25T14:40:43;8.70;;;1.75;;
52674;SDS011;38569;52.722;6.440;2023-04-25T14:43:09;7.55;;;1.92;;
52674;SDS011;38569;52.722;6.440;2023-04-25T14:45:35;7.70;;;1.75;;
52674;SDS011;38569;52.722;6.440;2023-04-25T14:48:01;6.40;;;1.95;;
52674;SDS011;38569;52.722;6.440;2023-04-25T14:50:27;7.75;;;2.40;;
52674;SDS011;38569;52.722;6.440;2023-04-25T14:52:53;6.47;;;1.30;;
52674;SDS011;38569;52.722;6.440;2023-04-25T14:55:23;7.85;;;1.90;;
52674;SDS011;38569;52.722;6.440;2023-04-25T14:57:49;8.02;;;2.45;;
52674;SDS011;38569;52.722;6.440;2023-04-25T15:00:15;6.85;;;1.60;;
52674;SDS011;38569;52.722;6.440;2023-04-25T15:02:41;5.82;;;1.58;;
52674;SDS011;38569;52.722;6.440;2023-04-25T15:05:07;4.32;;;1.30;;